createdAt,value
2022-11-02T00:00:01.044Z,2.00
2022-11-02T00:02:27.768Z,2.07
2022-11-02T00:04:54.236Z,2.33
2022-11-02T00:07:20.909Z,2.40
2022-11-02T00:09:47.407Z,2.30
2022-11-02T00:12:13.902Z,2.17
2022-11-02T00:14:40.397Z,2.50
2022-11-02T00:17:07.634Z,2.00
2022-11-02T00:19:34.452Z,2.00
2022-11-02T00:22:02.531Z,2.00
2022-11-02T00:24:30.637Z,2.60
2022-11-02T00:26:57.128Z,2.13
2022-11-02T00:29:24.673Z,2.10
2022-11-02T00:31:51.161Z,2.53
2022-11-02T00:34:17.790Z,2.10
2022-11-02T00:36:44.416Z,2.30
2022-11-02T00:39:10.885Z,2.10
2022-11-02T00:41:37.490Z,2.10
2022-11-02T00:44:04.363Z,2.37
2022-11-02T00:46:30.985Z,2.07
2022-11-02T00:48:58.249Z,2.00
2022-11-02T00:51:25.021Z,2.10
2022-11-02T00:53:51.703Z,2.90
2022-11-02T00:56:18.159Z,2.40
2022-11-02T00:58:44.922Z,2.20
2022-11-02T01:01:12.081Z,2.03
2022-11-02T01:03:38.637Z,2.10
2022-11-02T01:06:10.022Z,2.10
2022-11-02T01:08:37.293Z,2.37
2022-11-02T01:11:16.011Z,2.20
2022-11-02T01:13:44.297Z,2.20
2022-11-02T01:16:11.941Z,2.60
2022-11-02T01:18:39.507Z,2.20
2022-11-02T01:21:07.012Z,1.90
2022-11-02T01:23:35.655Z,2.50
2022-11-02T01:26:08.112Z,2.40
2022-11-02T01:28:35.476Z,2.40
2022-11-02T01:31:02.572Z,2.50
2022-11-02T01:33:29.461Z,2.20
2022-11-02T01:35:56.490Z,2.10
2022-11-02T01:38:23.926Z,3.03
2022-11-02T01:40:50.557Z,2.23
2022-11-02T01:43:27.696Z,2.43
2022-11-02T01:45:59.519Z,2.43
2022-11-02T01:48:33.025Z,2.03
2022-11-02T01:51:04.621Z,2.67
2022-11-02T01:53:33.912Z,2.40
2022-11-02T01:56:02.321Z,2.67
2022-11-02T01:58:28.901Z,2.40
2022-11-02T02:00:55.932Z,2.13
2022-11-02T02:03:23.136Z,2.30
2022-11-02T02:06:07.370Z,2.93
2022-11-02T02:08:39.341Z,2.73
2022-11-02T02:11:24.529Z,2.87
2022-11-02T02:13:51.408Z,2.20
2022-11-02T02:16:23.747Z,2.40
2022-11-02T02:18:57.759Z,2.60
2022-11-02T02:21:36.341Z,2.10
2022-11-02T02:24:08.539Z,2.30
2022-11-02T02:27:13.696Z,2.73
2022-11-02T02:29:59.264Z,2.43
2022-11-02T02:32:36.529Z,2.20
2022-11-02T02:35:14.449Z,2.30
2022-11-02T02:37:48.335Z,2.40
2022-11-02T02:40:21.667Z,2.60
2022-11-02T02:43:14.005Z,2.70
2022-11-02T02:45:47.573Z,2.20
2022-11-02T02:48:22.049Z,2.33
2022-11-02T02:50:50.420Z,2.43
2022-11-02T02:53:28.383Z,2.80
2022-11-02T02:55:59.712Z,2.33
2022-11-02T02:58:31.893Z,2.43
2022-11-02T03:01:00.613Z,2.10
2022-11-02T03:03:29.863Z,2.17
2022-11-02T03:06:30.169Z,2.30
2022-11-02T03:09:05.047Z,2.70
2022-11-02T03:11:34.658Z,2.90
2022-11-02T03:14:31.043Z,2.70
2022-11-02T03:17:13.581Z,2.33
2022-11-02T03:19:53.264Z,2.30
2022-11-02T03:22:28.173Z,2.23
2022-11-02T03:25:04.957Z,2.30
2022-11-02T03:27:34.464Z,2.43
2022-11-02T03:30:17.383Z,2.23
2022-11-02T03:33:19.167Z,2.40
2022-11-02T03:36:10.668Z,2.10
2022-11-02T03:39:10.424Z,2.23
2022-11-02T03:41:42.609Z,2.67
2022-11-02T03:44:15.128Z,2.13
2022-11-02T03:46:44.118Z,2.47
2022-11-02T03:49:18.155Z,2.33
2022-11-02T03:51:47.488Z,2.50
2022-11-02T03:54:48.852Z,2.20
2022-11-02T03:57:21.915Z,2.23
2022-11-02T03:59:48.548Z,2.40
2022-11-02T04:02:17.228Z,2.27
2022-11-02T04:04:52.073Z,2.40
2022-11-02T04:07:27.461Z,2.17
2022-11-02T04:09:54.159Z,2.00
2022-11-02T04:12:59.446Z,2.63
2022-11-02T04:15:26.107Z,2.60
2022-11-02T04:18:11.656Z,2.30
2022-11-02T04:20:38.587Z,2.37
2022-11-02T04:23:23.768Z,2.90
2022-11-02T04:25:54.882Z,2.17
2022-11-02T04:28:41.606Z,2.50
2022-11-02T04:31:08.095Z,1.93
2022-11-02T04:33:38.224Z,2.30
2022-11-02T04:36:16.015Z,2.30
2022-11-02T04:38:44.808Z,2.23
2022-11-02T04:41:43.904Z,2.30
2022-11-02T04:44:18.589Z,2.20
2022-11-02T04:46:54.361Z,2.80
2022-11-02T04:49:24.682Z,2.40
2022-11-02T04:51:52.461Z,2.03
2022-11-02T04:54:19.920Z,2.57
2022-11-02T04:56:50.908Z,2.50
2022-11-02T04:59:19.592Z,2.73
2022-11-02T05:01:47.044Z,2.23
2022-11-02T05:04:15.533Z,2.50
2022-11-02T05:06:42.052Z,2.33
2022-11-02T05:09:10.151Z,2.13
2022-11-02T05:11:40.982Z,2.23
2022-11-02T05:14:07.537Z,1.83
2022-11-02T05:16:34.330Z,2.60
2022-11-02T05:19:04.488Z,2.67
2022-11-02T05:21:33.572Z,2.63
2022-11-02T05:24:00.157Z,2.60
2022-11-02T05:26:28.143Z,2.80
2022-11-02T05:28:55.836Z,2.30
2022-11-02T05:31:23.423Z,2.90
2022-11-02T05:33:50.241Z,2.30
2022-11-02T05:36:20.303Z,2.67
2022-11-02T05:38:54.961Z,2.60
2022-11-02T05:41:23.478Z,2.23
2022-11-02T05:43:52.917Z,2.30
2022-11-02T05:46:21.304Z,2.77
2022-11-02T05:48:47.944Z,2.40
2022-11-02T05:51:14.500Z,2.67
2022-11-02T05:53:40.999Z,2.70
2022-11-02T05:56:10.267Z,2.33
2022-11-02T05:58:37.264Z,2.20
2022-11-02T06:01:06.590Z,2.63
2022-11-02T06:03:33.637Z,2.73
2022-11-02T06:06:10.664Z,2.97
2022-11-02T06:08:38.873Z,2.37
2022-11-02T06:11:10.276Z,2.87
2022-11-02T06:13:36.948Z,2.43
2022-11-02T06:16:05.385Z,2.50
2022-11-02T06:18:32.037Z,2.50
2022-11-02T06:20:59.467Z,2.30
2022-11-02T06:23:27.113Z,2.83
2022-11-02T06:25:55.360Z,2.90
2022-11-02T06:28:22.896Z,2.43
2022-11-02T06:30:50.096Z,2.60
2022-11-02T06:33:18.024Z,2.50
2022-11-02T06:35:46.220Z,2.80
2022-11-02T06:38:12.782Z,2.20
2022-11-02T06:40:39.417Z,2.50
2022-11-02T06:43:21.704Z,2.30
2022-11-02T06:45:48.326Z,2.87
2022-11-02T06:48:15.127Z,2.80
2022-11-02T06:50:41.641Z,2.90
2022-11-02T06:53:08.499Z,2.80
2022-11-02T06:55:35.191Z,2.50
2022-11-02T06:58:02.459Z,2.53
2022-11-02T07:00:30.159Z,2.73
2022-11-02T07:03:09.513Z,2.70
2022-11-02T07:05:36.725Z,2.87
2022-11-02T07:08:03.879Z,2.33
2022-11-02T07:10:30.710Z,2.90
2022-11-02T07:12:58.497Z,2.70
2022-11-02T07:15:26.367Z,2.80
2022-11-02T07:17:54.127Z,2.80
2022-11-02T07:20:20.851Z,2.57
2022-11-02T07:22:55.893Z,2.70
2022-11-02T07:25:23.260Z,2.70
2022-11-02T07:27:49.807Z,2.50
2022-11-02T07:30:16.540Z,2.63
2022-11-02T07:32:44.431Z,2.67
2022-11-02T07:35:12.886Z,2.80
2022-11-02T07:37:39.761Z,2.60
2022-11-02T07:40:08.321Z,2.60
2022-11-02T07:42:35.450Z,3.10
2022-11-02T07:45:04.663Z,3.40
2022-11-02T07:47:31.296Z,2.70
2022-11-02T07:49:59.669Z,2.83
2022-11-02T07:52:26.191Z,3.27
2022-11-02T07:54:53.037Z,3.03
2022-11-02T07:57:19.732Z,3.47
2022-11-02T07:59:46.163Z,3.17
2022-11-02T08:02:13.671Z,2.73
2022-11-02T08:04:43.885Z,2.97
2022-11-02T08:07:12.519Z,2.80
2022-11-02T08:09:39.280Z,2.67
2022-11-02T08:12:05.999Z,2.47
2022-11-02T08:14:32.448Z,2.83
2022-11-02T08:16:58.911Z,2.63
2022-11-02T08:19:25.549Z,2.90
2022-11-02T08:21:53.018Z,3.00
2022-11-02T08:24:19.703Z,2.63
2022-11-02T08:26:47.554Z,2.87
2022-11-02T08:29:16.188Z,3.30
2022-11-02T08:31:42.660Z,2.50
2022-11-02T08:34:11.912Z,3.00
2022-11-02T08:36:38.380Z,2.43
2022-11-02T08:39:04.937Z,2.30
2022-11-02T08:41:31.380Z,2.40
2022-11-02T08:43:59.018Z,2.50
2022-11-02T08:46:25.695Z,2.83
2022-11-02T08:48:52.333Z,2.67
2022-11-02T08:51:18.808Z,2.40
2022-11-02T08:53:51.174Z,2.80
2022-11-02T08:56:18.348Z,2.80
2022-11-02T08:58:44.782Z,2.20
2022-11-02T09:01:11.301Z,2.53
2022-11-02T09:03:37.844Z,2.87
2022-11-02T09:06:04.672Z,2.23
2022-11-02T09:08:31.704Z,2.43
2022-11-02T09:11:02.373Z,2.77
2022-11-02T09:13:30.268Z,3.17
2022-11-02T09:16:06.622Z,2.90
2022-11-02T09:18:33.171Z,3.23
2022-11-02T09:21:04.548Z,2.83
2022-11-02T09:23:31.370Z,3.10
2022-11-02T09:25:58.971Z,3.30
2022-11-02T09:28:25.689Z,2.60
2022-11-02T09:30:52.260Z,3.00
2022-11-02T09:33:19.019Z,2.93
2022-11-02T09:35:48.882Z,2.90
2022-11-02T09:38:18.220Z,3.00
2022-11-02T09:40:56.982Z,3.50
2022-11-02T09:43:40.235Z,2.07
2022-11-02T09:46:13.360Z,2.60
2022-11-02T09:48:45.699Z,2.60
2022-11-02T09:51:16.169Z,2.40
2022-11-02T09:53:53.633Z,2.40
2022-11-02T09:56:20.284Z,1.97
2022-11-02T09:58:57.620Z,2.30
2022-11-02T10:01:33.607Z,2.17
2022-11-02T10:04:03.043Z,2.27
2022-11-02T10:06:30.985Z,2.23
2022-11-02T10:09:11.130Z,2.47
2022-11-02T10:11:51.764Z,1.77
2022-11-02T10:14:32.857Z,1.97
2022-11-02T10:17:10.837Z,2.23
2022-11-02T10:19:41.197Z,2.33
2022-11-02T10:22:12.004Z,2.00
2022-11-02T10:24:42.678Z,2.07
2022-11-02T10:27:17.136Z,2.30
2022-11-02T10:29:55.218Z,1.90
2022-11-02T10:32:22.109Z,2.03
2022-11-02T10:34:58.567Z,2.50
2022-11-02T10:37:55.122Z,1.90
2022-11-02T10:40:52.080Z,1.80
2022-11-02T10:43:28.605Z,1.87
2022-11-02T10:46:10.071Z,2.00
2022-11-02T10:48:40.963Z,2.67
2022-11-02T10:51:10.245Z,1.83
2022-11-02T10:53:43.862Z,1.67
2022-11-02T10:56:33.044Z,1.90
2022-11-02T10:59:00.496Z,1.70
2022-11-02T11:01:29.295Z,1.90
2022-11-02T11:04:05.576Z,2.00
2022-11-02T11:06:42.465Z,2.20
2022-11-02T11:09:24.937Z,2.00
2022-11-02T11:12:22.223Z,1.90
2022-11-02T11:20:36.366Z,2.20
2022-11-02T11:23:15.518Z,2.20
2022-11-02T11:25:42.769Z,2.00
2022-11-02T11:28:53.538Z,1.90
2022-11-02T11:31:20.384Z,1.70
2022-11-02T11:33:58.845Z,2.03
2022-11-02T11:39:00.791Z,2.20
2022-11-02T11:41:29.647Z,2.20
2022-11-02T11:43:56.548Z,2.10
2022-11-02T11:46:23.273Z,2.10
2022-11-02T11:48:56.332Z,2.10
2022-11-02T11:51:45.086Z,1.93
2022-11-02T11:54:33.248Z,2.13
2022-11-02T11:57:21.558Z,2.03
2022-11-02T11:59:53.016Z,1.90
2022-11-02T12:02:36.806Z,2.17
2022-11-02T12:05:13.311Z,1.93
2022-11-02T12:07:58.745Z,1.70
2022-11-02T12:10:50.389Z,2.13
2022-11-02T12:13:30.032Z,2.10
2022-11-02T12:16:23.141Z,2.17
2022-11-02T12:18:53.612Z,1.90
2022-11-02T12:21:38.483Z,2.30
2022-11-02T12:24:35.222Z,1.90
2022-11-02T12:27:25.400Z,1.53
2022-11-02T12:30:07.003Z,1.67
2022-11-02T12:32:41.183Z,1.90
2022-11-02T12:35:32.592Z,1.80
2022-11-02T12:38:36.772Z,2.13
2022-11-02T12:41:07.120Z,1.73
2022-11-02T12:43:47.610Z,1.80
2022-11-02T12:46:44.623Z,1.50
2022-11-02T12:49:36.132Z,2.17
2022-11-02T12:52:27.826Z,2.00
2022-11-02T12:55:00.924Z,1.90
2022-11-02T12:57:33.396Z,1.60
2022-11-02T13:00:08.140Z,2.07
2022-11-02T13:02:59.749Z,1.80
2022-11-02T13:05:32.843Z,1.80
2022-11-02T13:08:08.738Z,1.90
2022-11-02T13:10:53.723Z,2.20
2022-11-02T13:13:42.424Z,1.80
2022-11-02T13:16:10.761Z,1.70
2022-11-02T13:18:45.760Z,2.00
2022-11-02T13:21:15.530Z,1.90
2022-11-02T13:23:53.572Z,2.23
2022-11-02T13:26:38.518Z,1.90
2022-11-02T13:29:15.157Z,2.10
2022-11-02T13:31:47.364Z,2.27
2022-11-02T13:34:19.109Z,1.70
2022-11-02T13:36:46.921Z,2.27
2022-11-02T13:39:38.405Z,1.80
2022-11-02T13:42:34.384Z,2.00
2022-11-02T13:45:25.619Z,2.33
2022-11-02T13:48:17.698Z,2.20
2022-11-02T13:50:52.992Z,1.80
2022-11-02T13:53:29.193Z,1.93
2022-11-02T13:55:59.977Z,2.57
2022-11-02T13:58:34.250Z,2.10
2022-11-02T14:01:08.136Z,1.70
2022-11-02T14:03:46.778Z,1.90
2022-11-02T14:06:15.947Z,2.00
2022-11-02T14:08:50.106Z,2.23
2022-11-02T14:11:16.585Z,1.90
2022-11-02T14:13:52.294Z,1.90
2022-11-02T14:16:44.953Z,2.10
2022-11-02T14:19:21.004Z,1.70
2022-11-02T14:21:50.657Z,2.07
2022-11-02T14:24:38.145Z,1.80
2022-11-02T14:27:13.672Z,2.03
2022-11-02T14:29:46.277Z,2.00
2022-11-02T14:32:26.676Z,2.10
2022-11-02T14:35:25.286Z,2.03
2022-11-02T14:38:24.674Z,1.90
2022-11-02T14:41:16.524Z,1.70
2022-11-02T14:44:33.493Z,1.63
2022-11-02T14:47:13.290Z,2.20
2022-11-02T14:50:15.155Z,1.87
2022-11-02T14:52:53.830Z,2.13
2022-11-02T14:55:31.925Z,2.23
2022-11-02T14:58:07.936Z,1.60
2022-11-02T15:00:49.427Z,1.90
2022-11-02T15:03:25.419Z,1.60
2022-11-02T15:06:10.688Z,2.10
2022-11-02T15:08:43.134Z,2.30
2022-11-02T15:11:43.531Z,2.00
2022-11-02T15:14:42.477Z,1.90
2022-11-02T15:17:15.031Z,1.80
2022-11-02T15:19:47.086Z,2.70
2022-11-02T15:22:28.938Z,2.20
2022-11-02T15:25:05.635Z,3.07
2022-11-02T15:27:34.571Z,3.60
2022-11-02T15:30:02.842Z,3.70
2022-11-02T15:32:34.760Z,3.30
2022-11-02T15:35:02.157Z,3.70
2022-11-02T15:37:37.364Z,3.77
2022-11-02T15:40:27.642Z,2.97
2022-11-02T15:43:19.507Z,3.60
2022-11-02T15:46:05.119Z,4.00
2022-11-02T15:48:56.481Z,4.40
2022-11-02T15:51:48.145Z,3.27
2022-11-02T15:54:59.908Z,3.07
2022-11-02T15:57:36.583Z,2.90
2022-11-02T16:00:13.184Z,2.70
2022-11-02T16:02:43.618Z,3.20
2022-11-02T16:05:20.634Z,2.80
2022-11-02T16:08:10.009Z,3.57
2022-11-02T16:10:36.371Z,6.77
2022-11-02T16:13:17.241Z,6.50
2022-11-02T16:15:45.188Z,3.97
2022-11-02T16:18:29.269Z,2.83
2022-11-02T16:21:02.508Z,3.07
2022-11-02T16:23:31.463Z,2.47
2022-11-02T16:26:00.242Z,2.40
2022-11-02T16:28:32.839Z,2.47
2022-11-02T16:31:38.002Z,2.60
2022-11-02T16:34:26.753Z,3.27
2022-11-02T16:36:54.439Z,3.00
2022-11-02T16:39:31.786Z,2.83
2022-11-02T16:42:00.511Z,2.90
2022-11-02T16:44:30.577Z,2.60
2022-11-02T16:47:00.777Z,2.50
2022-11-02T16:49:29.082Z,2.47
2022-11-02T16:51:58.693Z,2.90
2022-11-02T16:54:30.356Z,2.23
2022-11-02T16:57:19.924Z,2.67
2022-11-02T16:59:56.784Z,3.90
2022-11-02T17:02:29.393Z,5.17
2022-11-02T17:05:02.371Z,6.30
2022-11-02T17:07:44.699Z,5.90
2022-11-02T17:10:25.355Z,5.03
2022-11-02T17:12:52.125Z,8.20
2022-11-02T17:15:22.495Z,7.50
2022-11-02T17:17:49.816Z,7.30
2022-11-02T17:20:20.601Z,6.33
2022-11-02T17:22:56.905Z,5.70
2022-11-02T17:25:27.895Z,5.60
2022-11-02T17:27:56.593Z,6.20
2022-11-02T17:30:35.194Z,6.50
2022-11-02T17:33:18.077Z,6.90
2022-11-02T17:35:46.992Z,5.70
2022-11-02T17:38:13.920Z,5.60
2022-11-02T17:40:41.575Z,5.57
2022-11-02T17:43:08.363Z,5.03
2022-11-02T17:45:39.533Z,5.30
2022-11-02T17:48:07.854Z,4.73
2022-11-02T17:50:36.127Z,4.30
2022-11-02T17:53:04.072Z,3.40
2022-11-02T17:55:33.709Z,3.63
2022-11-02T17:58:00.832Z,3.47
2022-11-02T18:00:28.764Z,3.73
2022-11-02T18:03:00.540Z,4.10
2022-11-02T18:05:30.251Z,4.30
2022-11-02T18:07:58.656Z,4.50
2022-11-02T18:10:32.970Z,3.90
2022-11-02T18:13:00.132Z,4.40
2022-11-02T18:15:29.524Z,3.87
2022-11-02T18:17:56.935Z,4.07
2022-11-02T18:20:24.048Z,4.40
2022-11-02T18:22:50.554Z,4.53
2022-11-02T18:25:18.397Z,4.67
2022-11-02T18:27:46.136Z,4.90
2022-11-02T18:30:15.697Z,4.23
2022-11-02T18:32:43.845Z,4.90
2022-11-02T18:35:16.424Z,5.10
2022-11-02T18:37:43.217Z,4.30
2022-11-02T18:40:12.039Z,4.23
2022-11-02T18:42:39.859Z,4.67
2022-11-02T18:45:07.707Z,4.50
2022-11-02T18:47:34.797Z,4.60
2022-11-02T18:50:02.338Z,4.80
2022-11-02T18:52:32.551Z,6.00
2022-11-02T18:55:04.779Z,10.00
2022-11-02T18:57:32.528Z,11.63
2022-11-02T18:59:59.784Z,10.87
2022-11-02T19:02:26.412Z,10.37
2022-11-02T19:04:53.072Z,9.87
2022-11-02T19:07:38.533Z,8.97
2022-11-02T19:10:05.444Z,7.90
2022-11-02T19:12:32.116Z,8.17
2022-11-02T19:14:58.936Z,8.20
2022-11-02T19:17:26.651Z,7.30
2022-11-02T19:19:53.695Z,7.63
2022-11-02T19:22:25.684Z,7.90
2022-11-02T19:24:52.580Z,7.30
2022-11-02T19:27:21.448Z,7.47
2022-11-02T19:29:48.447Z,7.97
2022-11-02T19:32:15.081Z,6.87
2022-11-02T19:34:41.582Z,7.37
2022-11-02T19:37:08.981Z,7.60
2022-11-02T19:39:35.755Z,8.00
2022-11-02T19:42:03.496Z,8.00
2022-11-02T19:44:30.675Z,7.87
2022-11-02T19:46:57.239Z,7.83
2022-11-02T19:49:23.985Z,6.93
2022-11-02T19:51:50.501Z,7.33
2022-11-02T19:54:17.216Z,7.00
2022-11-02T19:56:43.691Z,6.60
2022-11-02T19:59:10.165Z,6.67
2022-11-02T20:01:38.818Z,7.07
2022-11-02T20:04:05.850Z,6.53
2022-11-02T20:06:40.835Z,6.47
2022-11-02T20:09:13.828Z,7.17
2022-11-02T20:11:44.382Z,7.07
2022-11-02T20:14:12.587Z,7.30
2022-11-02T20:16:39.648Z,6.73
2022-11-02T20:19:06.568Z,7.30
2022-11-02T20:21:36.930Z,6.90
2022-11-02T20:24:08.103Z,7.70
2022-11-02T20:26:36.823Z,6.80
2022-11-02T20:29:05.037Z,7.30
2022-11-02T20:31:34.573Z,6.43
2022-11-02T20:34:02.826Z,6.10
2022-11-02T20:36:30.598Z,6.67
2022-11-02T20:38:57.561Z,6.07
2022-11-02T20:41:24.542Z,7.20
2022-11-02T20:43:53.507Z,6.57
2022-11-02T20:46:47.372Z,6.40
2022-11-02T20:49:22.887Z,6.90
2022-11-02T20:52:02.381Z,6.30
2022-11-02T20:54:29.957Z,6.50
2022-11-02T20:56:57.743Z,5.57
2022-11-02T20:59:25.242Z,5.93
2022-11-02T21:01:51.829Z,6.27
2022-11-02T21:04:21.169Z,4.73
2022-11-02T21:06:49.820Z,4.10
2022-11-02T21:09:17.030Z,3.60
2022-11-02T21:12:02.224Z,3.70
2022-11-02T21:14:28.628Z,3.60
2022-11-02T21:16:55.657Z,3.50
2022-11-02T21:19:22.297Z,3.50
2022-11-02T21:21:48.805Z,3.27
2022-11-02T21:24:15.346Z,3.20
2022-11-02T21:26:41.784Z,2.93
2022-11-02T21:29:09.294Z,2.83
2022-11-02T21:31:35.771Z,2.63
2022-11-02T21:34:02.412Z,3.07
2022-11-02T21:36:28.897Z,3.07
2022-11-02T21:38:56.021Z,2.80
2022-11-02T21:41:26.503Z,3.60
2022-11-02T21:43:55.901Z,3.30
2022-11-02T21:46:25.463Z,3.60
2022-11-02T21:48:52.408Z,4.23
2022-11-02T21:51:20.852Z,4.00
2022-11-02T21:53:48.497Z,3.80
2022-11-02T21:56:17.496Z,4.00
2022-11-02T21:58:46.066Z,3.50
2022-11-02T22:01:42.631Z,3.87
2022-11-02T22:04:11.371Z,3.57
2022-11-02T22:06:38.217Z,3.60
2022-11-02T22:09:07.156Z,3.80
2022-11-02T22:11:34.126Z,4.20
2022-11-02T22:14:02.461Z,3.80
2022-11-02T22:16:31.980Z,3.70
2022-11-02T22:19:00.731Z,3.33
2022-11-02T22:21:30.583Z,3.37
2022-11-02T22:23:57.777Z,3.10
2022-11-02T22:26:27.005Z,3.00
2022-11-02T22:28:56.751Z,3.17
2022-11-02T22:31:32.057Z,2.47
2022-11-02T22:34:00.879Z,2.70
2022-11-02T22:36:30.053Z,2.83
2022-11-02T22:38:58.736Z,3.03
2022-11-02T22:41:32.021Z,3.70
2022-11-02T22:44:02.126Z,3.63
2022-11-02T22:46:30.704Z,4.00
2022-11-02T22:48:58.904Z,3.70
2022-11-02T22:51:28.093Z,3.93
2022-11-02T22:53:54.629Z,3.90
2022-11-02T22:56:23.212Z,3.30
2022-11-02T22:58:50.131Z,2.80
2022-11-02T23:01:21.905Z,2.90
2022-11-02T23:03:48.841Z,3.37
2022-11-02T23:06:16.283Z,3.17
2022-11-02T23:08:45.808Z,2.73
2022-11-02T23:11:25.251Z,2.80
2022-11-02T23:13:57.980Z,2.80
2022-11-02T23:16:29.920Z,2.57
2022-11-02T23:19:41.694Z,2.30
2022-11-02T23:22:28.883Z,2.27
2022-11-02T23:25:14.010Z,2.50
2022-11-02T23:28:20.125Z,2.47
2022-11-02T23:31:05.507Z,2.30
2022-11-02T23:33:33.931Z,2.60
2022-11-02T23:36:13.793Z,2.40
2022-11-02T23:38:59.990Z,2.10
2022-11-02T23:41:28.976Z,2.33
2022-11-02T23:44:11.644Z,2.70
2022-11-02T23:46:48.996Z,2.17
2022-11-02T23:49:17.621Z,2.30
2022-11-02T23:52:02.484Z,2.03
2022-11-02T23:54:47.756Z,2.43
2022-11-02T23:57:14.281Z,2.57
2022-11-02T23:59:40.704Z,2.23
